Time;durP1;ratioP1;P1;durP2;ratioP2;P2;SDS_P1;SDS_P2;PMS_P1;PMS_P2;Temp;Humidity;BMP_temperature;BMP_pressure;BME280_temperature;BME280_humidity;BME280_pressure;Samples;Min_cycle;Max_cycle;Signal;HPM_P1;HPM_P2
2022/08/18 00:00:11;;;;;;;19.03;17.20;;;;;;;;;;5075178;28;20435;-83
2022/08/18 00:02:40;;;;;;;16.47;14.87;;;;;;;;;;5073693;28;20458;-81
2022/08/18 00:05:08;;;;;;;16.83;15.33;;;;;;;;;;5086420;28;20486;-80
2022/08/18 00:07:36;;;;;;;16.93;15.23;;;;;;;;;;5087102;28;20416;-82
2022/08/18 00:10:05;;;;;;;17.63;15.93;;;;;;;;;;5090308;28;20443;-79
2022/08/18 00:12:33;;;;;;;18.50;16.80;;;;;;;;;;5091190;28;20427;-80
2022/08/18 00:15:03;;;;;;;20.10;18.30;;;;;;;;;;5076422;28;20557;-84
2022/08/18 00:17:30;;;;;;;19.80;17.90;;;;;;;;;;5094949;28;20431;-80
2022/08/18 00:19:59;;;;;;;17.80;16.10;;;;;;;;;;5094630;28;20459;-81
2022/08/18 00:22:26;;;;;;;18.00;16.30;;;;;;;;;;5096475;28;20451;-87
2022/08/18 00:24:55;;;;;;;19.57;17.80;;;;;;;;;;5095125;28;20475;-81
2022/08/18 00:27:24;;;;;;;19.80;17.90;;;;;;;;;;5071406;28;20493;-82
2022/08/18 00:29:52;;;;;;;18.20;16.60;;;;;;;;;;5072527;28;20526;-81
2022/08/18 00:32:21;;;;;;;19.30;17.50;;;;;;;;;;5093809;28;20443;-80
2022/08/18 00:34:48;;;;;;;17.97;16.27;;;;;;;;;;5075839;28;20830;-83
2022/08/18 00:37:16;;;;;;;19.60;17.50;;;;;;;;;;5093792;28;20537;-80
2022/08/18 00:39:44;;;;;;;19.47;17.47;;;;;;;;;;5094398;28;21000;-81
2022/08/18 00:42:13;;;;;;;19.83;17.77;;;;;;;;;;5094005;28;20801;-82
2022/08/18 00:44:40;;;;;;;19.10;17.20;;;;;;;;;;5078412;28;20479;-83
2022/08/18 00:47:07;;;;;;;17.77;16.17;;;;;;;;;;5094925;28;20494;-76
2022/08/18 00:49:35;;;;;;;19.00;17.27;;;;;;;;;;5089740;28;20436;-81
2022/08/18 00:52:03;;;;;;;18.57;16.67;;;;;;;;;;5090353;28;20424;-80
2022/08/18 00:54:33;;;;;;;18.30;16.50;;;;;;;;;;5093476;28;20446;-82
2022/08/18 00:57:01;;;;;;;18.43;16.53;;;;;;;;;;5093697;28;20558;-80
2022/08/18 00:59:31;;;;;;;18.87;17.07;;;;;;;;;;5075774;28;20546;-81
2022/08/18 01:02:01;;;;;;;19.10;17.27;;;;;;;;;;5094575;28;21023;-79
2022/08/18 01:04:31;;;;;;;20.27;18.17;;;;;;;;;;5094653;28;20485;-78
2022/08/18 01:07:01;;;;;;;19.63;17.73;;;;;;;;;;5095949;28;20821;-77
2022/08/18 01:09:28;;;;;;;19.30;17.40;;;;;;;;;;5093965;28;20987;-79
2022/08/18 01:11:57;;;;;;;21.07;19.00;;;;;;;;;;5088823;28;20455;-79
2022/08/18 01:14:25;;;;;;;19.27;17.30;;;;;;;;;;5089884;28;22152;-80
2022/08/18 01:22:19;;;;;;;22.60;18.83;;;;;;;;;;5091941;28;20857;-80
2022/08/18 01:27:31;;;;;;;23.43;21.30;;;;;;;;;;5092987;28;20483;-82
2022/08/18 01:30:03;;;;;;;23.93;21.43;;;;;;;;;;5095053;28;20868;-80
2022/08/18 01:32:30;;;;;;;22.27;19.97;;;;;;;;;;5091379;28;20943;-80
2022/08/18 01:34:57;;;;;;;21.77;19.50;;;;;;;;;;5088273;28;20454;-79
2022/08/18 01:37:25;;;;;;;24.17;21.70;;;;;;;;;;5090702;28;20431;-83
2022/08/18 01:39:53;;;;;;;25.00;22.60;;;;;;;;;;5074448;28;20437;-81
2022/08/18 01:42:21;;;;;;;23.60;21.13;;;;;;;;;;5092516;28;20645;-80
2022/08/18 01:44:49;;;;;;;22.97;20.67;;;;;;;;;;5092546;28;20493;-80
2022/08/18 01:47:18;;;;;;;25.97;23.27;;;;;;;;;;5074989;28;20554;-81
2022/08/18 01:49:46;;;;;;;27.13;24.27;;;;;;;;;;5075525;28;20505;-81
2022/08/18 01:52:18;;;;;;;26.33;23.43;;;;;;;;;;5094442;28;20417;-82
2022/08/18 01:54:45;;;;;;;24.03;21.50;;;;;;;;;;5073461;28;20446;-82
2022/08/18 01:57:14;;;;;;;24.80;21.90;;;;;;;;;;5088071;28;20727;-79
2022/08/18 01:59:42;;;;;;;23.57;21.17;;;;;;;;;;5072143;28;20428;-80
2022/08/18 02:02:10;;;;;;;27.63;24.67;;;;;;;;;;5091947;28;20507;-79
2022/08/18 02:04:37;;;;;;;25.50;22.80;;;;;;;;;;5073943;28;20583;-78
2022/08/18 02:07:06;;;;;;;26.87;24.13;;;;;;;;;;5092380;28;20409;-84
2022/08/18 02:09:33;;;;;;;26.60;23.70;;;;;;;;;;5074465;28;20533;-82
2022/08/18 02:12:00;;;;;;;25.03;22.53;;;;;;;;;;5092982;28;20452;-77
2022/08/18 02:14:29;;;;;;;27.30;24.13;;;;;;;;;;5094070;28;20520;-80
2022/08/18 02:16:57;;;;;;;26.90;24.30;;;;;;;;;;5090773;28;20500;-81
2022/08/18 02:19:24;;;;;;;26.33;23.70;;;;;;;;;;5087599;28;20442;-79
2022/08/18 02:21:51;;;;;;;26.83;24.27;;;;;;;;;;5089686;28;20490;-78
2022/08/18 02:24:19;;;;;;;25.30;22.80;;;;;;;;;;5091721;28;20445;-81
2022/08/18 02:26:46;;;;;;;26.30;23.60;;;;;;;;;;5073815;28;20486;-82
2022/08/18 02:29:13;;;;;;;26.40;23.70;;;;;;;;;;5083650;28;20438;-81
2022/08/18 02:31:42;;;;;;;25.93;22.87;;;;;;;;;;5090995;28;20587;-82
2022/08/18 02:34:09;;;;;;;25.70;23.10;;;;;;;;;;5092569;28;20549;-79
2022/08/18 02:36:36;;;;;;;26.90;24.20;;;;;;;;;;5093141;28;21003;-82
2022/08/18 02:39:04;;;;;;;28.17;25.27;;;;;;;;;;5072161;28;20933;-80
2022/08/18 02:41:31;;;;;;;27.67;24.70;;;;;;;;;;5087153;28;20493;-80
2022/08/18 02:43:59;;;;;;;27.97;25.17;;;;;;;;;;5089245;28;20410;-81
2022/08/18 02:46:26;;;;;;;29.07;26.17;;;;;;;;;;5090963;28;20481;-78
2022/08/18 02:48:55;;;;;;;28.50;25.70;;;;;;;;;;5091352;28;20942;-81
2022/08/18 02:51:22;;;;;;;29.33;26.33;;;;;;;;;;5091566;28;20803;-84
2022/08/18 02:53:50;;;;;;;31.00;27.57;;;;;;;;;;5091702;28;20527;-81
2022/08/18 02:56:23;;;;;;;28.00;25.07;;;;;;;;;;5092242;28;20435;-81
2022/08/18 02:58:52;;;;;;;30.43;27.23;;;;;;;;;;5094037;28;20445;-80
2022/08/18 03:01:20;;;;;;;26.07;23.47;;;;;;;;;;5072342;28;20416;-79
2022/08/18 03:03:47;;;;;;;29.13;26.13;;;;;;;;;;5087216;28;20420;-78
2022/08/18 03:06:16;;;;;;;27.80;25.00;;;;;;;;;;5088918;28;20464;-77
2022/08/18 03:08:47;;;;;;;27.40;24.60;;;;;;;;;;5091068;28;20427;-80
2022/08/18 03:11:14;;;;;;;33.73;27.43;;;;;;;;;;5091064;28;20498;-80
2022/08/18 03:13:41;;;;;;;29.13;25.77;;;;;;;;;;5091513;28;20880;-80
2022/08/18 03:16:09;;;;;;;29.60;26.30;;;;;;;;;;5091566;28;21029;-81
2022/08/18 03:18:36;;;;;;;28.83;25.73;;;;;;;;;;5092094;28;20480;-81
2022/08/18 03:21:05;;;;;;;30.27;27.37;;;;;;;;;;5093284;28;20441;-83
2022/08/18 03:23:34;;;;;;;28.43;25.40;;;;;;;;;;5089592;28;20447;-81
2022/08/18 03:26:01;;;;;;;28.93;25.83;;;;;;;;;;5086332;28;20459;-80
2022/08/18 03:28:28;;;;;;;28.30;25.50;;;;;;;;;;5089274;28;20834;-83
2022/08/18 03:30:56;;;;;;;29.43;26.50;;;;;;;;;;5090873;28;20510;-82
2022/08/18 03:33:23;;;;;;;30.90;27.60;;;;;;;;;;5072808;28;20898;-80
2022/08/18 03:35:51;;;;;;;28.90;25.90;;;;;;;;;;5090881;28;20530;-81
2022/08/18 03:38:21;;;;;;;29.73;25.07;;;;;;;;;;5090906;28;20787;-83
2022/08/18 03:40:52;;;;;;;28.30;25.27;;;;;;;;;;5091583;28;20574;-81
2022/08/18 03:43:20;;;;;;;30.53;27.43;;;;;;;;;;5092875;28;21023;-83
2022/08/18 03:45:47;;;;;;;30.07;26.70;;;;;;;;;;5089125;28;20453;-81
2022/08/18 03:48:17;;;;;;;33.63;30.07;;;;;;;;;;5088172;28;20841;-81
2022/08/18 03:50:45;;;;;;;32.73;29.00;;;;;;;;;;5094193;28;20504;-81
2022/08/18 03:53:12;;;;;;;32.10;28.80;;;;;;;;;;5094770;28;20816;-80
2022/08/18 03:55:41;;;;;;;32.83;29.17;;;;;;;;;;5094782;28;20462;-78
2022/08/18 03:58:12;;;;;;;32.87;28.70;;;;;;;;;;5095075;28;20416;-80
2022/08/18 04:00:40;;;;;;;34.40;30.73;;;;;;;;;;5094673;28;20859;-80
2022/08/18 04:03:08;;;;;;;31.57;28.30;;;;;;;;;;5095700;28;20519;-79
2022/08/18 04:05:39;;;;;;;31.90;28.53;;;;;;;;;;5078786;28;20487;-78
2022/08/18 04:08:06;;;;;;;35.73;29.97;;;;;;;;;;5075008;28;20419;-81
2022/08/18 04:10:34;;;;;;;34.17;30.50;;;;;;;;;;5090520;28;20517;-81
2022/08/18 04:13:04;;;;;;;34.53;29.70;;;;;;;;;;5092610;28;20905;-84
2022/08/18 04:15:32;;;;;;;32.27;28.80;;;;;;;;;;5094126;28;20443;-81
2022/08/18 04:18:02;;;;;;;35.50;31.80;;;;;;;;;;5094255;28;20414;-79
2022/08/18 04:20:31;;;;;;;47.97;39.60;;;;;;;;;;5094807;28;20838;-79
2022/08/18 04:22:59;;;;;;;49.53;42.17;;;;;;;;;;5094323;28;20440;-81
2022/08/18 04:25:26;;;;;;;50.90;41.50;;;;;;;;;;5095405;28;20983;-84
2022/08/18 04:27:59;;;;;;;47.33;38.50;;;;;;;;;;5096311;28;20830;-80
2022/08/18 04:30:27;;;;;;;45.47;37.83;;;;;;;;;;5092526;28;20766;-79
2022/08/18 04:32:59;;;;;;;44.47;38.23;;;;;;;;;;5089990;28;20426;-79
2022/08/18 04:35:28;;;;;;;46.93;41.17;;;;;;;;;;5092481;28;20434;-80
2022/08/18 04:37:55;;;;;;;50.47;42.40;;;;;;;;;;5094141;28;20546;-80
2022/08/18 04:40:22;;;;;;;45.40;37.57;;;;;;;;;;5093932;28;20528;-80
2022/08/18 04:42:49;;;;;;;45.77;38.80;;;;;;;;;;5094292;28;20649;-78
2022/08/18 04:45:16;;;;;;;52.30;43.00;;;;;;;;;;5093632;28;20496;-80
2022/08/18 04:47:44;;;;;;;50.73;39.30;;;;;;;;;;5095056;28;20459;-80
2022/08/18 04:50:12;;;;;;;59.60;44.17;;;;;;;;;;5095831;28;20445;-80
2022/08/18 04:55:21;;;;;;;55.60;42.63;;;;;;;;;;5087895;28;20482;-83
2022/08/18 04:57:48;;;;;;;52.03;39.53;;;;;;;;;;5092433;28;20815;-79
2022/08/18 05:00:16;;;;;;;50.13;40.20;;;;;;;;;;5092058;28;20533;-83
2022/08/18 05:02:43;;;;;;;59.40;44.63;;;;;;;;;;5093608;28;20530;-79
2022/08/18 05:05:10;;;;;;;62.30;47.60;;;;;;;;;;5093722;28;21088;-78
2022/08/18 05:07:44;;;;;;;59.13;45.07;;;;;;;;;;5093004;28;20544;-81
2022/08/18 05:10:12;;;;;;;52.43;43.27;;;;;;;;;;5075028;28;20420;-80
2022/08/18 05:12:41;;;;;;;58.97;43.10;;;;;;;;;;5075225;28;20959;-80
2022/08/18 05:15:09;;;;;;;52.13;41.17;;;;;;;;;;5085077;28;20461;-81
2022/08/18 05:17:38;;;;;;;55.00;41.30;;;;;;;;;;5089024;28;20864;-79
2022/08/18 05:20:06;;;;;;;60.17;39.33;;;;;;;;;;5091883;28;20489;-83
2022/08/18 05:22:39;;;;;;;55.27;41.80;;;;;;;;;;5092433;28;20443;-81
2022/08/18 05:25:07;;;;;;;63.20;43.30;;;;;;;;;;5092964;28;20478;-78
2022/08/18 05:27:35;;;;;;;66.00;45.33;;;;;;;;;;5093456;28;20466;-81
2022/08/18 05:30:03;;;;;;;56.00;44.27;;;;;;;;;;5092397;28;20504;-80
2022/08/18 05:32:33;;;;;;;60.47;43.50;;;;;;;;;;5077419;28;20507;-80
2022/08/18 05:35:03;;;;;;;60.33;44.00;;;;;;;;;;5094710;28;20463;-81
2022/08/18 05:37:36;;;;;;;63.33;44.20;;;;;;;;;;5071755;28;22020;-81
2022/08/18 05:40:06;;;;;;;71.10;46.17;;;;;;;;;;5088350;28;20438;-78
2022/08/18 05:42:36;;;;;;;70.03;48.93;;;;;;;;;;5091622;28;20463;-80
2022/08/18 05:45:05;;;;;;;67.93;45.67;;;;;;;;;;5092177;28;20543;-79
2022/08/18 05:47:32;;;;;;;83.90;48.77;;;;;;;;;;5092195;28;20589;-78
2022/08/18 05:50:04;;;;;;;75.17;46.97;;;;;;;;;;5093465;28;20471;-81
2022/08/18 05:52:34;;;;;;;79.10;46.90;;;;;;;;;;5074188;28;20997;-78
2022/08/18 05:57:50;;;;;;;75.77;47.67;;;;;;;;;;5077804;28;20479;-78
2022/08/18 06:00:18;;;;;;;75.50;46.40;;;;;;;;;;5069945;28;20413;-82
2022/08/18 06:02:47;;;;;;;74.10;45.40;;;;;;;;;;5088981;28;20431;-77
2022/08/18 06:05:15;;;;;;;80.20;46.40;;;;;;;;;;5091790;28;20451;-78
2022/08/18 06:07:45;;;;;;;76.03;46.90;;;;;;;;;;5074069;28;20589;-75
2022/08/18 06:10:13;;;;;;;71.40;45.77;;;;;;;;;;5074254;28;20471;-79
2022/08/18 06:12:42;;;;;;;67.07;45.00;;;;;;;;;;5074193;28;20449;-79
2022/08/18 06:15:14;;;;;;;67.93;43.97;;;;;;;;;;5092087;28;20491;-77
2022/08/18 06:17:56;;;;;;;70.37;43.90;;;;;;;;;;5094119;28;20429;-78
2022/08/18 06:20:29;;;;;;;64.30;44.20;;;;;;;;;;5078293;28;20526;-78
2022/08/18 06:23:00;;;;;;;66.23;43.47;;;;;;;;;;5088017;28;20785;-78
2022/08/18 06:25:33;;;;;;;70.60;45.73;;;;;;;;;;5089117;28;20458;-79
2022/08/18 06:28:04;;;;;;;74.43;48.03;;;;;;;;;;5091528;28;20585;-77
2022/08/18 06:30:41;;;;;;;67.73;44.60;;;;;;;;;;5092030;28;20526;-80
2022/08/18 06:33:13;;;;;;;57.50;39.97;;;;;;;;;;5092264;28;20542;-82
2022/08/18 06:35:45;;;;;;;64.10;43.60;;;;;;;;;;5092316;28;20469;-82
2022/08/18 06:41:03;;;;;;;73.07;46.87;;;;;;;;;;5090378;28;20554;-76
2022/08/18 06:43:33;;;;;;;71.73;46.50;;;;;;;;;;5087793;28;20541;-76
2022/08/18 06:46:02;;;;;;;65.43;43.47;;;;;;;;;;5089174;28;20799;-76
2022/08/18 06:48:33;;;;;;;66.57;43.57;;;;;;;;;;5091916;28;20512;-76
2022/08/18 06:51:02;;;;;;;62.43;42.77;;;;;;;;;;5091822;28;20440;-77
2022/08/18 06:53:44;;;;;;;65.40;42.90;;;;;;;;;;5091917;28;20471;-76
2022/08/18 06:56:21;;;;;;;60.67;42.03;;;;;;;;;;5076205;28;20494;-77
2022/08/18 06:58:49;;;;;;;59.07;42.70;;;;;;;;;;5075179;28;20533;-76
2022/08/18 07:01:18;;;;;;;56.13;39.80;;;;;;;;;;5093753;28;20920;-77
2022/08/18 07:03:48;;;;;;;57.20;40.33;;;;;;;;;;5090625;28;20530;-76
2022/08/18 07:06:25;;;;;;;54.90;40.30;;;;;;;;;;5087321;28;20494;-76
2022/08/18 07:08:54;;;;;;;59.23;40.27;;;;;;;;;;5071976;28;21014;-77
2022/08/18 07:11:23;;;;;;;59.03;36.20;;;;;;;;;;5073750;28;20458;-78
2022/08/18 07:13:52;;;;;;;42.53;34.17;;;;;;;;;;5073709;28;21043;-78
2022/08/18 07:16:23;;;;;;;43.77;34.90;;;;;;;;;;5092335;28;20490;-78
2022/08/18 07:18:51;;;;;;;41.70;32.03;;;;;;;;;;5073965;28;20910;-76
2022/08/18 07:21:27;;;;;;;40.07;32.30;;;;;;;;;;5093741;28;20940;-78
2022/08/18 07:23:59;;;;;;;43.37;33.47;;;;;;;;;;5078974;28;20431;-78
2022/08/18 07:26:26;;;;;;;49.03;35.00;;;;;;;;;;5093926;28;20483;-77
2022/08/18 07:28:54;;;;;;;40.03;31.47;;;;;;;;;;5073088;28;20439;-80
2022/08/18 07:31:36;;;;;;;39.37;32.00;;;;;;;;;;5094006;28;20978;-78
2022/08/18 07:34:05;;;;;;;39.37;31.20;;;;;;;;;;5077361;28;20523;-80
2022/08/18 07:36:34;;;;;;;43.53;32.50;;;;;;;;;;5095388;28;20451;-78
2022/08/18 07:39:06;;;;;;;38.83;31.00;;;;;;;;;;5096092;28;20471;-75
2022/08/18 07:41:35;;;;;;;35.43;29.60;;;;;;;;;;5094810;28;20897;-77
2022/08/18 07:44:07;;;;;;;36.80;30.00;;;;;;;;;;5079835;28;20442;-79
2022/08/18 07:46:38;;;;;;;37.87;30.40;;;;;;;;;;5098621;28;20563;-75
2022/08/18 07:49:06;;;;;;;33.00;29.40;;;;;;;;;;5094198;28;20515;-73
2022/08/18 07:51:43;;;;;;;34.60;29.03;;;;;;;;;;5091850;28;20777;-75
2022/08/18 07:54:15;;;;;;;31.20;26.87;;;;;;;;;;5096074;28;20522;-75
2022/08/18 07:56:47;;;;;;;32.60;27.13;;;;;;;;;;5096385;28;20430;-76
2022/08/18 07:59:17;;;;;;;32.93;26.90;;;;;;;;;;5095444;28;20526;-75
2022/08/18 08:01:48;;;;;;;35.50;28.40;;;;;;;;;;5096218;28;20860;-75
2022/08/18 08:04:19;;;;;;;40.03;30.57;;;;;;;;;;5077005;28;20865;-75
2022/08/18 08:06:50;;;;;;;33.27;26.23;;;;;;;;;;5097088;28;20475;-76
2022/08/18 08:09:21;;;;;;;40.33;27.80;;;;;;;;;;5097142;28;20443;-75
2022/08/18 08:11:52;;;;;;;31.13;25.73;;;;;;;;;;5093179;28;20523;-77
2022/08/18 08:14:30;;;;;;;30.87;25.50;;;;;;;;;;5090774;28;20431;-77
2022/08/18 08:17:02;;;;;;;26.50;23.37;;;;;;;;;;5094410;28;20887;-75
2022/08/18 08:19:40;;;;;;;30.53;26.17;;;;;;;;;;5094424;28;20522;-74
2022/08/18 08:22:12;;;;;;;35.53;30.27;;;;;;;;;;5095117;28;20541;-77
2022/08/18 08:24:45;;;;;;;30.30;26.47;;;;;;;;;;5094320;28;21058;-77
2022/08/18 08:27:16;;;;;;;29.30;26.10;;;;;;;;;;5094235;28;20478;-75
2022/08/18 08:29:47;;;;;;;35.17;29.23;;;;;;;;;;5096190;28;20866;-81
2022/08/18 08:32:20;;;;;;;29.87;24.70;;;;;;;;;;5096108;28;20447;-79
2022/08/18 08:34:50;;;;;;;28.27;25.20;;;;;;;;;;5089983;28;20561;-77
2022/08/18 08:37:20;;;;;;;28.00;25.00;;;;;;;;;;5090866;28;20435;-75
2022/08/18 08:39:49;;;;;;;30.37;25.17;;;;;;;;;;5093168;28;20547;-76
2022/08/18 08:42:20;;;;;;;30.67;27.07;;;;;;;;;;5093306;28;20484;-78
2022/08/18 08:44:50;;;;;;;28.13;22.93;;;;;;;;;;5093731;28;20465;-76
2022/08/18 08:47:22;;;;;;;28.90;23.23;;;;;;;;;;5093994;28;20578;-79
2022/08/18 08:49:51;;;;;;;24.80;22.20;;;;;;;;;;5093893;28;20455;-78
2022/08/18 08:52:22;;;;;;;28.37;24.10;;;;;;;;;;5096326;28;20447;-78
2022/08/18 08:54:52;;;;;;;26.50;22.93;;;;;;;;;;5095677;28;20559;-77
2022/08/18 08:57:20;;;;;;;26.83;22.90;;;;;;;;;;5089718;28;20466;-75
2022/08/18 08:59:49;;;;;;;26.23;22.90;;;;;;;;;;5071055;28;20927;-77
2022/08/18 09:02:24;;;;;;;25.40;22.80;;;;;;;;;;5092914;28;20538;-75
2022/08/18 09:04:56;;;;;;;26.97;24.27;;;;;;;;;;5093071;28;20467;-75
2022/08/18 09:07:31;;;;;;;24.70;21.57;;;;;;;;;;5093417;28;20479;-78
2022/08/18 09:10:10;;;;;;;24.17;21.37;;;;;;;;;;5093619;28;20447;-76
2022/08/18 09:12:43;;;;;;;24.47;21.33;;;;;;;;;;5093611;28;21031;-77
2022/08/18 09:15:17;;;;;;;22.93;20.53;;;;;;;;;;5095239;28;20459;-79
2022/08/18 09:17:53;;;;;;;25.50;22.20;;;;;;;;;;5077314;28;20447;-78
2022/08/18 09:20:36;;;;;;;21.80;19.50;;;;;;;;;;5070262;28;20495;-78
2022/08/18 09:23:06;;;;;;;24.60;21.10;;;;;;;;;;5090222;28;20796;-79
2022/08/18 09:25:44;;;;;;;24.83;22.30;;;;;;;;;;5092885;28;20562;-77
2022/08/18 09:28:13;;;;;;;25.60;22.20;;;;;;;;;;5093408;28;20570;-76
2022/08/18 09:30:43;;;;;;;25.17;22.50;;;;;;;;;;5093205;28;20534;-79
2022/08/18 09:33:19;;;;;;;22.57;20.20;;;;;;;;;;5093880;28;20542;-78
2022/08/18 09:35:54;;;;;;;22.20;20.00;;;;;;;;;;5093826;28;20467;-75
2022/08/18 09:44:10;;;;;;;21.50;19.30;;;;;;;;;;5087618;28;21173;-73
2022/08/18 09:46:52;;;;;;;21.57;18.70;;;;;;;;;;5076467;28;20903;-75
2022/08/18 09:49:34;;;;;;;20.77;18.57;;;;;;;;;;5076546;28;20471;-76
2022/08/18 09:52:25;;;;;;;20.37;18.20;;;;;;;;;;5077128;28;20439;-76
2022/08/18 09:54:53;;;;;;;22.33;19.80;;;;;;;;;;5078076;28;20968;-76
2022/08/18 09:57:23;;;;;;;22.00;19.80;;;;;;;;;;5092447;28;20543;-76
2022/08/18 09:59:55;;;;;;;20.60;18.57;;;;;;;;;;5076722;28;20443;-76
2022/08/18 10:02:38;;;;;;;20.27;18.13;;;;;;;;;;5095173;28;20506;-76
2022/08/18 10:05:20;;;;;;;22.60;20.33;;;;;;;;;;5087137;28;20443;-76
2022/08/18 10:07:49;;;;;;;21.73;19.53;;;;;;;;;;5072680;28;20591;-80
2022/08/18 10:10:22;;;;;;;23.53;21.07;;;;;;;;;;5074037;28;20848;-81
2022/08/18 10:12:55;;;;;;;20.00;18.00;;;;;;;;;;5092206;28;20443;-77
2022/08/18 10:15:37;;;;;;;20.20;18.17;;;;;;;;;;5092069;28;20468;-79
2022/08/18 10:18:16;;;;;;;23.43;21.03;;;;;;;;;;5076756;28;20500;-84
2022/08/18 10:20:49;;;;;;;17.43;15.63;;;;;;;;;;5092156;28;20932;-80
2022/08/18 10:23:32;;;;;;;19.57;17.70;;;;;;;;;;5069237;28;21831;-87
2022/08/18 10:26:00;;;;;;;20.97;18.80;;;;;;;;;;5072361;28;20483;-81
2022/08/18 10:28:43;;;;;;;18.90;17.00;;;;;;;;;;5091747;28;21214;-80
2022/08/18 10:31:10;;;;;;;19.07;17.07;;;;;;;;;;5091046;28;20451;-83
2022/08/18 10:33:52;;;;;;;17.40;15.77;;;;;;;;;;5092062;28;20530;-80
2022/08/18 10:36:33;;;;;;;20.10;18.13;;;;;;;;;;5091737;28;20460;-84
2022/08/18 10:39:05;;;;;;;18.60;16.90;;;;;;;;;;5092622;28;20547;-84
2022/08/18 10:41:34;;;;;;;18.53;16.77;;;;;;;;;;5093493;28;21019;-80
2022/08/18 10:44:03;;;;;;;19.60;17.60;;;;;;;;;;5092220;28;20527;-79
2022/08/18 10:46:35;;;;;;;15.60;14.20;;;;;;;;;;5068741;28;20449;-78
2022/08/18 10:49:05;;;;;;;16.37;14.70;;;;;;;;;;5088733;28;20532;-77
2022/08/18 10:51:40;;;;;;;19.80;17.70;;;;;;;;;;5073610;28;20447;-81
2022/08/18 10:54:13;;;;;;;17.07;15.33;;;;;;;;;;5091503;28;20960;-77
2022/08/18 10:56:44;;;;;;;15.97;14.47;;;;;;;;;;5091489;28;20470;-79
2022/08/18 10:59:17;;;;;;;15.27;13.87;;;;;;;;;;5073591;28;21081;-81
2022/08/18 11:01:52;;;;;;;15.83;14.30;;;;;;;;;;5092759;28;20800;-78
2022/08/18 11:04:25;;;;;;;17.83;16.03;;;;;;;;;;5093611;28;20438;-79
2022/08/18 11:06:58;;;;;;;18.17;16.27;;;;;;;;;;5091106;28;20463;-77
2022/08/18 11:09:26;;;;;;;15.80;14.40;;;;;;;;;;5086797;28;21046;-78
2022/08/18 11:11:56;;;;;;;18.40;16.33;;;;;;;;;;5089020;28;20436;-78
2022/08/18 11:14:32;;;;;;;15.97;14.53;;;;;;;;;;5072997;28;20534;-84
2022/08/18 11:17:07;;;;;;;16.37;14.83;;;;;;;;;;5091121;28;20537;-80
2022/08/18 11:19:36;;;;;;;17.67;16.00;;;;;;;;;;5091451;28;20447;-78
2022/08/18 11:22:04;;;;;;;17.63;15.93;;;;;;;;;;5091403;28;20475;-82
2022/08/18 11:24:34;;;;;;;17.97;16.37;;;;;;;;;;5092364;28;20510;-78
2022/08/18 11:27:03;;;;;;;16.60;15.00;;;;;;;;;;5075741;28;20954;-80
2022/08/18 11:29:32;;;;;;;17.70;16.00;;;;;;;;;;5072755;28;20514;-79
2022/08/18 11:32:02;;;;;;;14.57;13.17;;;;;;;;;;5068938;28;20531;-80
2022/08/18 11:34:31;;;;;;;14.43;13.10;;;;;;;;;;5088651;28;20443;-82
2022/08/18 11:36:59;;;;;;;16.33;14.73;;;;;;;;;;5090942;28;20794;-81
2022/08/18 11:39:27;;;;;;;15.17;13.67;;;;;;;;;;5090927;28;20440;-81
2022/08/18 11:41:56;;;;;;;17.40;14.90;;;;;;;;;;5090649;28;20550;-80
2022/08/18 11:44:27;;;;;;;21.47;19.30;;;;;;;;;;5091471;28;20442;-85
2022/08/18 11:46:56;;;;;;;16.97;15.30;;;;;;;;;;5092150;28;20448;-85
2022/08/18 11:49:31;;;;;;;15.80;14.30;;;;;;;;;;5093027;28;20835;-81
2022/08/18 11:52:01;;;;;;;16.50;14.90;;;;;;;;;;5090855;28;20431;-79
2022/08/18 11:54:34;;;;;;;18.10;16.40;;;;;;;;;;5086215;28;21989;-80
2022/08/18 11:57:16;;;;;;;17.17;15.47;;;;;;;;;;5088533;28;20446;-79
2022/08/18 11:59:44;;;;;;;20.03;18.10;;;;;;;;;;5075186;28;21061;-80
2022/08/18 12:02:16;;;;;;;22.23;19.97;;;;;;;;;;5090763;28;20870;-76
2022/08/18 12:04:44;;;;;;;14.63;13.10;;;;;;;;;;5073187;28;20455;-83
2022/08/18 12:07:13;;;;;;;15.60;14.10;;;;;;;;;;5073530;28;20445;-80
2022/08/18 12:09:42;;;;;;;16.77;15.10;;;;;;;;;;5094475;28;20577;-81
2022/08/18 12:12:15;;;;;;;14.53;13.23;;;;;;;;;;5097144;28;20439;-85
2022/08/18 12:14:57;;;;;;;16.77;15.20;;;;;;;;;;5093824;28;20538;-80
2022/08/18 12:17:26;;;;;;;15.00;13.70;;;;;;;;;;5074466;28;20520;-81
2022/08/18 12:19:53;;;;;;;15.80;14.33;;;;;;;;;;5092873;28;20446;-80
2022/08/18 12:22:23;;;;;;;16.30;14.67;;;;;;;;;;5094572;28;21006;-83
2022/08/18 12:24:50;;;;;;;14.23;13.00;;;;;;;;;;5076778;28;20473;-84
2022/08/18 12:27:19;;;;;;;14.53;13.30;;;;;;;;;;5094761;28;20445;-82
2022/08/18 12:29:46;;;;;;;14.10;12.70;;;;;;;;;;5094542;28;21028;-83
2022/08/18 12:32:14;;;;;;;14.60;13.20;;;;;;;;;;5095681;28;20538;-83
2022/08/18 12:34:42;;;;;;;14.50;13.00;;;;;;;;;;5078733;28;21044;-80
2022/08/18 12:37:10;;;;;;;13.30;12.10;;;;;;;;;;5093972;28;20428;-81
2022/08/18 12:39:38;;;;;;;15.73;14.33;;;;;;;;;;5071654;28;20571;-79
2022/08/18 12:42:05;;;;;;;15.40;14.10;;;;;;;;;;5091829;28;20455;-81
2022/08/18 12:44:33;;;;;;;14.30;13.10;;;;;;;;;;5094044;28;20550;-78
2022/08/18 12:47:01;;;;;;;13.27;11.97;;;;;;;;;;5094298;28;20443;-80
2022/08/18 12:49:29;;;;;;;16.87;15.27;;;;;;;;;;5094233;28;20918;-81
2022/08/18 12:51:58;;;;;;;16.03;13.30;;;;;;;;;;5094585;28;20484;-81
2022/08/18 12:54:26;;;;;;;18.40;16.80;;;;;;;;;;5077057;28;20570;-81
2022/08/18 12:56:54;;;;;;;18.17;16.37;;;;;;;;;;5095976;28;20451;-80
2022/08/18 12:59:22;;;;;;;16.83;15.20;;;;;;;;;;5094203;28;20535;-80
2022/08/18 13:01:50;;;;;;;16.53;15.00;;;;;;;;;;5089774;28;20428;-80
2022/08/18 13:04:17;;;;;;;17.20;15.60;;;;;;;;;;5090936;28;20447;-79
2022/08/18 13:06:46;;;;;;;16.40;14.97;;;;;;;;;;5075803;28;20450;-81
2022/08/18 13:09:14;;;;;;;14.60;13.40;;;;;;;;;;5093586;28;20652;-81
2022/08/18 13:11:41;;;;;;;16.53;15.10;;;;;;;;;;5093933;28;20514;-79
2022/08/18 13:14:09;;;;;;;18.73;16.93;;;;;;;;;;5094297;28;20542;-80
2022/08/18 13:16:37;;;;;;;15.33;13.83;;;;;;;;;;5094247;28;20546;-78
2022/08/18 13:19:04;;;;;;;19.03;17.13;;;;;;;;;;5095742;28;20475;-78
2022/08/18 13:21:32;;;;;;;17.10;15.60;;;;;;;;;;5093623;28;20652;-79
2022/08/18 13:24:00;;;;;;;17.87;16.07;;;;;;;;;;5089104;28;20522;-80
2022/08/18 13:26:30;;;;;;;17.20;15.43;;;;;;;;;;5090113;28;20457;-81
2022/08/18 13:28:58;;;;;;;15.77;14.37;;;;;;;;;;5093434;28;20582;-80
2022/08/18 13:31:25;;;;;;;15.13;13.63;;;;;;;;;;5093297;28;20788;-80
2022/08/18 13:33:53;;;;;;;14.27;12.87;;;;;;;;;;5093423;28;20847;-81
2022/08/18 13:36:20;;;;;;;12.23;11.23;;;;;;;;;;5093617;28;20481;-79
2022/08/18 13:38:48;;;;;;;12.17;11.07;;;;;;;;;;5075965;28;20550;-79
2022/08/18 13:41:16;;;;;;;10.73;9.90;;;;;;;;;;5095240;28;20906;-79
2022/08/18 13:43:45;;;;;;;12.30;11.00;;;;;;;;;;5094400;28;20510;-77
2022/08/18 13:46:13;;;;;;;12.53;10.03;;;;;;;;;;5088742;28;20459;-80
2022/08/18 13:48:40;;;;;;;12.77;10.23;;;;;;;;;;5089302;28;20518;-80
2022/08/18 13:51:09;;;;;;;9.97;9.17;;;;;;;;;;5092887;28;20492;-80
2022/08/18 13:53:38;;;;;;;10.80;9.83;;;;;;;;;;5092810;28;20440;-80
2022/08/18 13:56:05;;;;;;;11.97;10.70;;;;;;;;;;5093017;28;20463;-81
2022/08/18 13:58:32;;;;;;;10.33;9.53;;;;;;;;;;5093228;28;20793;-80
2022/08/18 14:01:02;;;;;;;11.03;10.23;;;;;;;;;;5093127;28;21076;-80
2022/08/18 14:03:29;;;;;;;10.67;9.77;;;;;;;;;;5077059;28;20439;-81
2022/08/18 14:06:01;;;;;;;10.40;9.37;;;;;;;;;;5094062;28;20479;-81
2022/08/18 14:08:28;;;;;;;8.70;8.00;;;;;;;;;;5088372;28;20882;-80
2022/08/18 14:10:57;;;;;;;9.60;8.80;;;;;;;;;;5089149;28;20430;-79
2022/08/18 14:13:25;;;;;;;9.63;8.77;;;;;;;;;;5092897;28;20526;-80
2022/08/18 14:15:52;;;;;;;9.07;8.17;;;;;;;;;;5092013;28;20466;-78
2022/08/18 14:18:21;;;;;;;9.43;8.60;;;;;;;;;;5092704;28;20447;-78
2022/08/18 14:28:52;;;;;;;14.30;8.97;;;;;;;;;;5091787;28;20561;-80
2022/08/18 14:31:19;;;;;;;10.20;9.30;;;;;;;;;;5088006;28;20466;-82
2022/08/18 14:33:48;;;;;;;8.90;8.20;;;;;;;;;;5089058;28;20534;-82
2022/08/18 14:36:15;;;;;;;9.53;8.73;;;;;;;;;;5091959;28;20554;-81
2022/08/18 14:38:43;;;;;;;8.57;7.77;;;;;;;;;;5074136;28;20443;-77
2022/08/18 14:41:11;;;;;;;8.33;7.53;;;;;;;;;;5091802;28;20470;-81
2022/08/18 14:43:39;;;;;;;8.43;7.73;;;;;;;;;;5092615;28;20446;-81
2022/08/18 14:46:06;;;;;;;7.50;6.80;;;;;;;;;;5092443;28;20557;-81
2022/08/18 14:48:35;;;;;;;8.90;8.20;;;;;;;;;;5076362;28;20475;-83
2022/08/18 14:51:05;;;;;;;8.90;8.10;;;;;;;;;;5093224;28;20538;-82
2022/08/18 14:53:34;;;;;;;8.23;7.53;;;;;;;;;;5069117;28;20435;-77
2022/08/18 14:56:01;;;;;;;8.00;7.30;;;;;;;;;;5088638;28;20444;-81
2022/08/18 14:58:30;;;;;;;7.67;7.07;;;;;;;;;;5091423;28;20443;-81
2022/08/18 15:00:58;;;;;;;7.63;6.83;;;;;;;;;;5074024;28;20439;-83
2022/08/18 15:03:26;;;;;;;7.73;7.03;;;;;;;;;;5075163;28;20475;-79